sensor_id;sensor_type;location;lat;lon;timestamp;P1;durP1;ratioP1;P2;durP2;ratioP2
18188;SDS011;9219;50.396;8.546;2023-04-10T00:00:31;10.13;;;6.07;;
18188;SDS011;9219;50.396;8.546;2023-04-10T00:02:58;9.27;;;6.57;;
18188;SDS011;9219;50.396;8.546;2023-04-10T00:05:27;9.47;;;5.70;;
18188;SDS011;9219;50.396;8.546;2023-04-10T00:07:54;7.60;;;5.10;;
18188;SDS011;9219;50.396;8.546;2023-04-10T00:10:23;7.57;;;5.30;;
18188;SDS011;9219;50.396;8.546;2023-04-10T00:18:39;10.63;;;5.87;;
18188;SDS011;9219;50.396;8.546;2023-04-10T00:21:06;9.57;;;6.37;;
18188;SDS011;9219;50.396;8.546;2023-04-10T00:23:34;10.03;;;5.90;;
18188;SDS011;9219;50.396;8.546;2023-04-10T00:26:02;9.87;;;6.17;;
18188;SDS011;9219;50.396;8.546;2023-04-10T00:28:29;9.10;;;6.17;;
18188;SDS011;9219;50.396;8.546;2023-04-10T00:30:57;10.70;;;6.33;;
18188;SDS011;9219;50.396;8.546;2023-04-10T00:33:24;10.73;;;6.77;;
18188;SDS011;9219;50.396;8.546;2023-04-10T00:35:53;10.47;;;6.57;;
18188;SDS011;9219;50.396;8.546;2023-04-10T00:43:26;9.27;;;6.23;;
18188;SDS011;9219;50.396;8.546;2023-04-10T00:45:53;9.40;;;5.93;;
18188;SDS011;9219;50.396;8.546;2023-04-10T00:48:21;9.87;;;6.70;;
18188;SDS011;9219;50.396;8.546;2023-04-10T00:50:48;10.53;;;6.17;;
18188;SDS011;9219;50.396;8.546;2023-04-10T00:53:16;9.60;;;6.10;;
18188;SDS011;9219;50.396;8.546;2023-04-10T00:55:43;9.17;;;6.00;;
18188;SDS011;9219;50.396;8.546;2023-04-10T00:58:13;9.63;;;6.53;;
18188;SDS011;9219;50.396;8.546;2023-04-10T01:00:42;9.27;;;6.50;;
18188;SDS011;9219;50.396;8.546;2023-04-10T01:08:25;8.57;;;5.97;;
18188;SDS011;9219;50.396;8.546;2023-04-10T01:11:02;8.73;;;5.90;;
18188;SDS011;9219;50.396;8.546;2023-04-10T01:13:38;10.63;;;5.87;;
18188;SDS011;9219;50.396;8.546;2023-04-10T01:16:14;10.03;;;5.97;;
18188;SDS011;9219;50.396;8.546;2023-04-10T01:18:45;10.40;;;6.10;;
18188;SDS011;9219;50.396;8.546;2023-04-10T01:21:18;9.00;;;6.13;;
18188;SDS011;9219;50.396;8.546;2023-04-10T01:23:56;10.57;;;6.80;;
18188;SDS011;9219;50.396;8.546;2023-04-10T01:31:44;10.30;;;6.70;;
18188;SDS011;9219;50.396;8.546;2023-04-10T01:34:16;10.43;;;6.07;;
18188;SDS011;9219;50.396;8.546;2023-04-10T01:36:47;9.57;;;6.50;;
18188;SDS011;9219;50.396;8.546;2023-04-10T01:39:17;8.37;;;6.07;;
18188;SDS011;9219;50.396;8.546;2023-04-10T01:41:46;8.47;;;5.87;;
18188;SDS011;9219;50.396;8.546;2023-04-10T01:44:16;10.17;;;6.17;;
18188;SDS011;9219;50.396;8.546;2023-04-10T01:46:47;10.03;;;6.57;;
18188;SDS011;9219;50.396;8.546;2023-04-10T01:54:20;9.33;;;6.60;;
18188;SDS011;9219;50.396;8.546;2023-04-10T01:56:49;9.57;;;6.60;;
18188;SDS011;9219;50.396;8.546;2023-04-10T01:59:17;11.67;;;6.50;;
18188;SDS011;9219;50.396;8.546;2023-04-10T02:01:45;12.17;;;5.80;;
18188;SDS011;9219;50.396;8.546;2023-04-10T02:04:13;14.43;;;6.53;;
18188;SDS011;9219;50.396;8.546;2023-04-10T02:06:42;8.73;;;6.47;;
18188;SDS011;9219;50.396;8.546;2023-04-10T02:09:17;9.23;;;6.17;;
18188;SDS011;9219;50.396;8.546;2023-04-10T02:11:53;9.23;;;5.87;;
18188;SDS011;9219;50.396;8.546;2023-04-10T02:15:03;10.20;;;6.53;;
18188;SDS011;9219;50.396;8.546;2023-04-10T02:17:35;9.53;;;6.53;;
18188;SDS011;9219;50.396;8.546;2023-04-10T02:20:05;9.80;;;6.10;;
18188;SDS011;9219;50.396;8.546;2023-04-10T02:22:34;10.63;;;6.60;;
18188;SDS011;9219;50.396;8.546;2023-04-10T02:25:02;10.27;;;6.27;;
18188;SDS011;9219;50.396;8.546;2023-04-10T02:27:31;10.30;;;6.47;;
18188;SDS011;9219;50.396;8.546;2023-04-10T02:30:02;11.50;;;7.10;;
18188;SDS011;9219;50.396;8.546;2023-04-10T02:37:40;11.27;;;5.93;;
18188;SDS011;9219;50.396;8.546;2023-04-10T02:40:08;9.27;;;6.00;;
18188;SDS011;9219;50.396;8.546;2023-04-10T02:42:36;10.20;;;6.80;;
18188;SDS011;9219;50.396;8.546;2023-04-10T02:45:04;10.77;;;6.83;;
18188;SDS011;9219;50.396;8.546;2023-04-10T02:47:33;10.33;;;6.37;;
18188;SDS011;9219;50.396;8.546;2023-04-10T02:50:01;11.57;;;7.77;;
18188;SDS011;9219;50.396;8.546;2023-04-10T02:52:28;11.00;;;6.77;;
18188;SDS011;9219;50.396;8.546;2023-04-10T02:54:57;10.67;;;6.43;;
18188;SDS011;9219;50.396;8.546;2023-04-10T03:02:30;11.47;;;6.70;;
18188;SDS011;9219;50.396;8.546;2023-04-10T03:04:59;10.27;;;6.47;;
18188;SDS011;9219;50.396;8.546;2023-04-10T03:07:28;10.57;;;6.73;;
18188;SDS011;9219;50.396;8.546;2023-04-10T03:09:56;8.47;;;5.93;;
18188;SDS011;9219;50.396;8.546;2023-04-10T03:12:24;9.30;;;6.53;;
18188;SDS011;9219;50.396;8.546;2023-04-10T03:14:51;12.03;;;7.07;;
18188;SDS011;9219;50.396;8.546;2023-04-10T03:17:18;10.43;;;6.57;;
18188;SDS011;9219;50.396;8.546;2023-04-10T03:23:12;9.20;;;5.93;;
18188;SDS011;9219;50.396;8.546;2023-04-10T03:25:42;10.40;;;6.30;;
18188;SDS011;9219;50.396;8.546;2023-04-10T03:28:10;9.67;;;6.63;;
18188;SDS011;9219;50.396;8.546;2023-04-10T03:30:37;11.10;;;7.10;;
18188;SDS011;9219;50.396;8.546;2023-04-10T03:33:05;10.93;;;6.87;;
18188;SDS011;9219;50.396;8.546;2023-04-10T03:35:32;12.50;;;7.73;;
18188;SDS011;9219;50.396;8.546;2023-04-10T03:38:00;10.93;;;7.17;;
18188;SDS011;9219;50.396;8.546;2023-04-10T03:46:20;10.63;;;6.83;;
18188;SDS011;9219;50.396;8.546;2023-04-10T03:48:48;10.67;;;6.87;;
18188;SDS011;9219;50.396;8.546;2023-04-10T03:51:17;11.17;;;7.40;;
18188;SDS011;9219;50.396;8.546;2023-04-10T03:53:45;8.77;;;5.93;;
18188;SDS011;9219;50.396;8.546;2023-04-10T03:56:14;10.77;;;7.00;;
18188;SDS011;9219;50.396;8.546;2023-04-10T03:58:42;11.17;;;7.23;;
18188;SDS011;9219;50.396;8.546;2023-04-10T04:01:09;11.27;;;7.33;;
18188;SDS011;9219;50.396;8.546;2023-04-10T04:11:46;10.33;;;6.87;;
18188;SDS011;9219;50.396;8.546;2023-04-10T04:14:13;11.00;;;6.40;;
18188;SDS011;9219;50.396;8.546;2023-04-10T04:16:40;10.57;;;7.00;;
18188;SDS011;9219;50.396;8.546;2023-04-10T04:19:08;12.03;;;7.23;;
18188;SDS011;9219;50.396;8.546;2023-04-10T04:21:36;11.23;;;6.77;;
18188;SDS011;9219;50.396;8.546;2023-04-10T04:24:03;11.67;;;7.57;;
18188;SDS011;9219;50.396;8.546;2023-04-10T04:26:31;11.03;;;6.93;;
18188;SDS011;9219;50.396;8.546;2023-04-10T04:34:35;10.47;;;6.67;;
18188;SDS011;9219;50.396;8.546;2023-04-10T04:37:03;12.67;;;7.93;;
18188;SDS011;9219;50.396;8.546;2023-04-10T04:39:30;14.73;;;7.13;;
18188;SDS011;9219;50.396;8.546;2023-04-10T04:41:57;12.67;;;7.93;;
18188;SDS011;9219;50.396;8.546;2023-04-10T04:44:24;11.17;;;7.67;;
18188;SDS011;9219;50.396;8.546;2023-04-10T04:46:51;12.57;;;8.07;;
18188;SDS011;9219;50.396;8.546;2023-04-10T04:49:19;11.93;;;7.43;;
18188;SDS011;9219;50.396;8.546;2023-04-10T04:54:42;13.00;;;7.60;;
18188;SDS011;9219;50.396;8.546;2023-04-10T04:57:10;11.90;;;7.40;;
18188;SDS011;9219;50.396;8.546;2023-04-10T04:59:37;12.50;;;8.10;;
18188;SDS011;9219;50.396;8.546;2023-04-10T05:02:05;9.70;;;7.37;;
18188;SDS011;9219;50.396;8.546;2023-04-10T05:04:32;14.20;;;7.73;;
18188;SDS011;9219;50.396;8.546;2023-04-10T05:07:00;10.60;;;7.13;;
18188;SDS011;9219;50.396;8.546;2023-04-10T05:09:28;10.87;;;7.50;;
18188;SDS011;9219;50.396;8.546;2023-04-10T05:11:56;10.97;;;7.10;;
18188;SDS011;9219;50.396;8.546;2023-04-10T05:19:44;13.23;;;8.50;;
18188;SDS011;9219;50.396;8.546;2023-04-10T05:22:12;12.60;;;7.80;;
18188;SDS011;9219;50.396;8.546;2023-04-10T05:24:41;12.17;;;7.53;;
18188;SDS011;9219;50.396;8.546;2023-04-10T05:27:08;12.23;;;8.17;;
18188;SDS011;9219;50.396;8.546;2023-04-10T05:29:35;12.17;;;7.03;;
18188;SDS011;9219;50.396;8.546;2023-04-10T05:32:03;12.33;;;7.43;;
18188;SDS011;9219;50.396;8.546;2023-04-10T05:34:31;11.43;;;6.97;;
18188;SDS011;9219;50.396;8.546;2023-04-10T05:36:59;13.77;;;7.20;;
18188;SDS011;9219;50.396;8.546;2023-04-10T05:44:46;16.67;;;7.23;;
18188;SDS011;9219;50.396;8.546;2023-04-10T05:47:13;16.40;;;8.43;;
18188;SDS011;9219;50.396;8.546;2023-04-10T05:49:40;10.57;;;7.37;;
18188;SDS011;9219;50.396;8.546;2023-04-10T05:52:07;12.73;;;7.17;;
18188;SDS011;9219;50.396;8.546;2023-04-10T05:54:35;12.20;;;7.00;;
18188;SDS011;9219;50.396;8.546;2023-04-10T05:57:02;8.73;;;5.90;;
18188;SDS011;9219;50.396;8.546;2023-04-10T05:59:29;11.90;;;7.37;;
18188;SDS011;9219;50.396;8.546;2023-04-10T06:04:37;14.30;;;7.40;;
18188;SDS011;9219;50.396;8.546;2023-04-10T06:07:05;13.17;;;8.57;;
18188;SDS011;9219;50.396;8.546;2023-04-10T06:09:32;10.63;;;7.53;;
18188;SDS011;9219;50.396;8.546;2023-04-10T06:11:59;12.97;;;7.20;;
18188;SDS011;9219;50.396;8.546;2023-04-10T06:14:27;10.20;;;7.37;;
18188;SDS011;9219;50.396;8.546;2023-04-10T06:16:54;10.87;;;7.17;;
18188;SDS011;9219;50.396;8.546;2023-04-10T06:19:22;11.20;;;7.33;;
18188;SDS011;9219;50.396;8.546;2023-04-10T06:28:49;11.23;;;7.17;;
18188;SDS011;9219;50.396;8.546;2023-04-10T06:31:20;11.93;;;8.03;;
18188;SDS011;9219;50.396;8.546;2023-04-10T06:33:52;12.20;;;7.73;;
18188;SDS011;9219;50.396;8.546;2023-04-10T06:36:25;13.07;;;7.70;;
18188;SDS011;9219;50.396;8.546;2023-04-10T06:39:01;10.93;;;7.03;;
18188;SDS011;9219;50.396;8.546;2023-04-10T06:41:29;10.23;;;7.03;;
18188;SDS011;9219;50.396;8.546;2023-04-10T06:44:11;11.43;;;7.33;;
18188;SDS011;9219;50.396;8.546;2023-04-10T06:51:44;12.90;;;7.10;;
18188;SDS011;9219;50.396;8.546;2023-04-10T06:54:13;13.93;;;7.40;;
18188;SDS011;9219;50.396;8.546;2023-04-10T06:56:40;13.03;;;7.27;;
18188;SDS011;9219;50.396;8.546;2023-04-10T06:59:08;12.97;;;7.27;;
18188;SDS011;9219;50.396;8.546;2023-04-10T07:01:35;10.67;;;7.23;;
18188;SDS011;9219;50.396;8.546;2023-04-10T07:04:03;11.77;;;7.33;;
18188;SDS011;9219;50.396;8.546;2023-04-10T07:06:31;11.07;;;7.27;;
18188;SDS011;9219;50.396;8.546;2023-04-10T07:11:41;11.60;;;7.27;;
18188;SDS011;9219;50.396;8.546;2023-04-10T07:14:09;10.80;;;6.87;;
18188;SDS011;9219;50.396;8.546;2023-04-10T07:16:36;12.70;;;8.13;;
18188;SDS011;9219;50.396;8.546;2023-04-10T07:19:03;13.30;;;8.63;;
18188;SDS011;9219;50.396;8.546;2023-04-10T07:21:31;10.10;;;7.03;;
18188;SDS011;9219;50.396;8.546;2023-04-10T07:23:58;15.10;;;7.50;;
18188;SDS011;9219;50.396;8.546;2023-04-10T07:26:28;14.50;;;8.87;;
18188;SDS011;9219;50.396;8.546;2023-04-10T07:34:56;12.70;;;8.43;;
18188;SDS011;9219;50.396;8.546;2023-04-10T07:37:24;13.57;;;8.27;;
18188;SDS011;9219;50.396;8.546;2023-04-10T07:39:51;13.67;;;7.73;;
18188;SDS011;9219;50.396;8.546;2023-04-10T07:42:19;13.77;;;8.80;;
18188;SDS011;9219;50.396;8.546;2023-04-10T07:44:47;13.33;;;8.03;;
18188;SDS011;9219;50.396;8.546;2023-04-10T07:47:15;11.37;;;7.53;;
18188;SDS011;9219;50.396;8.546;2023-04-10T07:49:42;13.00;;;8.47;;
18188;SDS011;9219;50.396;8.546;2023-04-10T07:52:11;13.40;;;7.60;;
18188;SDS011;9219;50.396;8.546;2023-04-10T07:59:56;10.00;;;6.73;;
18188;SDS011;9219;50.396;8.546;2023-04-10T08:02:24;14.03;;;8.23;;
18188;SDS011;9219;50.396;8.546;2023-04-10T08:04:51;13.07;;;7.97;;
18188;SDS011;9219;50.396;8.546;2023-04-10T08:07:19;10.87;;;7.50;;
18188;SDS011;9219;50.396;8.546;2023-04-10T08:09:50;11.33;;;7.37;;
18188;SDS011;9219;50.396;8.546;2023-04-10T08:12:18;12.23;;;7.77;;
18188;SDS011;9219;50.396;8.546;2023-04-10T08:14:46;10.80;;;7.43;;
18188;SDS011;9219;50.396;8.546;2023-04-10T08:17:15;15.37;;;8.90;;
18188;SDS011;9219;50.396;8.546;2023-04-10T08:25:04;11.77;;;8.50;;
18188;SDS011;9219;50.396;8.546;2023-04-10T08:27:31;9.63;;;7.23;;
18188;SDS011;9219;50.396;8.546;2023-04-10T08:29:58;13.10;;;8.00;;
18188;SDS011;9219;50.396;8.546;2023-04-10T08:32:27;11.10;;;7.43;;
18188;SDS011;9219;50.396;8.546;2023-04-10T08:34:55;12.00;;;8.10;;
18188;SDS011;9219;50.396;8.546;2023-04-10T08:37:23;11.80;;;7.93;;
18188;SDS011;9219;50.396;8.546;2023-04-10T08:39:51;11.90;;;7.77;;
18188;SDS011;9219;50.396;8.546;2023-04-10T08:42:20;10.60;;;7.73;;
18188;SDS011;9219;50.396;8.546;2023-04-10T08:45:00;11.37;;;7.77;;
18188;SDS011;9219;50.396;8.546;2023-04-10T08:47:29;11.73;;;7.37;;
18188;SDS011;9219;50.396;8.546;2023-04-10T08:50:03;12.93;;;8.80;;
18188;SDS011;9219;50.396;8.546;2023-04-10T08:52:33;9.93;;;7.03;;
18188;SDS011;9219;50.396;8.546;2023-04-10T08:55:04;13.53;;;8.40;;
18188;SDS011;9219;50.396;8.546;2023-04-10T08:57:35;9.70;;;7.20;;
18188;SDS011;9219;50.396;8.546;2023-04-10T09:00:08;10.10;;;6.87;;
18188;SDS011;9219;50.396;8.546;2023-04-10T09:02:41;11.77;;;7.47;;
18188;SDS011;9219;50.396;8.546;2023-04-10T09:05:22;11.67;;;7.70;;
18188;SDS011;9219;50.396;8.546;2023-04-10T09:07:53;11.17;;;7.50;;
18188;SDS011;9219;50.396;8.546;2023-04-10T09:10:21;10.83;;;7.17;;
18188;SDS011;9219;50.396;8.546;2023-04-10T09:12:48;12.23;;;8.47;;
18188;SDS011;9219;50.396;8.546;2023-04-10T09:15:16;11.03;;;7.43;;
18188;SDS011;9219;50.396;8.546;2023-04-10T09:17:54;12.60;;;8.03;;
18188;SDS011;9219;50.396;8.546;2023-04-10T09:20:24;10.43;;;7.13;;
18188;SDS011;9219;50.396;8.546;2023-04-10T09:28:01;9.70;;;6.53;;
18188;SDS011;9219;50.396;8.546;2023-04-10T09:30:36;11.10;;;7.47;;
18188;SDS011;9219;50.396;8.546;2023-04-10T09:33:19;11.13;;;7.83;;
18188;SDS011;9219;50.396;8.546;2023-04-10T09:35:48;13.40;;;7.63;;
18188;SDS011;9219;50.396;8.546;2023-04-10T09:38:16;12.40;;;8.53;;
18188;SDS011;9219;50.396;8.546;2023-04-10T09:40:45;12.57;;;8.17;;
18188;SDS011;9219;50.396;8.546;2023-04-10T09:43:20;11.00;;;7.80;;
18188;SDS011;9219;50.396;8.546;2023-04-10T09:51:01;11.23;;;7.80;;
18188;SDS011;9219;50.396;8.546;2023-04-10T09:53:29;10.37;;;7.40;;
18188;SDS011;9219;50.396;8.546;2023-04-10T09:55:57;10.70;;;7.80;;
18188;SDS011;9219;50.396;8.546;2023-04-10T09:58:26;9.93;;;7.77;;
18188;SDS011;9219;50.396;8.546;2023-04-10T10:00:54;11.40;;;7.57;;
18188;SDS011;9219;50.396;8.546;2023-04-10T10:03:21;8.90;;;6.23;;
18188;SDS011;9219;50.396;8.546;2023-04-10T10:05:50;10.77;;;7.10;;
18188;SDS011;9219;50.396;8.546;2023-04-10T10:08:18;9.20;;;6.77;;
18188;SDS011;9219;50.396;8.546;2023-04-10T10:16:07;10.20;;;7.50;;
18188;SDS011;9219;50.396;8.546;2023-04-10T10:18:42;8.70;;;6.43;;
18188;SDS011;9219;50.396;8.546;2023-04-10T10:21:12;9.17;;;7.07;;
18188;SDS011;9219;50.396;8.546;2023-04-10T10:23:44;8.00;;;6.27;;
18188;SDS011;9219;50.396;8.546;2023-04-10T10:26:13;8.63;;;6.43;;
18188;SDS011;9219;50.396;8.546;2023-04-10T10:28:40;8.07;;;6.17;;
18188;SDS011;9219;50.396;8.546;2023-04-10T10:31:10;8.43;;;5.87;;
18188;SDS011;9219;50.396;8.546;2023-04-10T10:33:39;7.63;;;5.43;;
18188;SDS011;9219;50.396;8.546;2023-04-10T10:41:15;7.80;;;5.40;;
18188;SDS011;9219;50.396;8.546;2023-04-10T10:43:49;7.07;;;5.40;;
18188;SDS011;9219;50.396;8.546;2023-04-10T10:46:23;6.37;;;5.47;;
18188;SDS011;9219;50.396;8.546;2023-04-10T10:48:58;7.30;;;4.67;;
18188;SDS011;9219;50.396;8.546;2023-04-10T10:51:41;5.80;;;4.43;;
18188;SDS011;9219;50.396;8.546;2023-04-10T10:54:31;6.33;;;4.80;;
18188;SDS011;9219;50.396;8.546;2023-04-10T10:57:01;7.97;;;5.07;;
18188;SDS011;9219;50.396;8.546;2023-04-10T11:04:56;5.13;;;4.27;;
18188;SDS011;9219;50.396;8.546;2023-04-10T11:07:39;6.43;;;4.70;;
18188;SDS011;9219;50.396;8.546;2023-04-10T11:13:36;6.60;;;4.90;;
18188;SDS011;9219;50.396;8.546;2023-04-10T11:16:05;6.00;;;4.60;;
18188;SDS011;9219;50.396;8.546;2023-04-10T11:33:02;6.10;;;4.53;;
18188;SDS011;9219;50.396;8.546;2023-04-10T11:35:31;6.00;;;4.27;;
18188;SDS011;9219;50.396;8.546;2023-04-10T11:38:09;6.63;;;4.73;;
18188;SDS011;9219;50.396;8.546;2023-04-10T11:40:54;6.37;;;4.90;;
18188;SDS011;9219;50.396;8.546;2023-04-10T11:43:26;7.90;;;5.20;;
18188;SDS011;9219;50.396;8.546;2023-04-10T11:46:05;11.07;;;4.63;;
18188;SDS011;9219;50.396;8.546;2023-04-10T11:53:39;5.60;;;4.10;;
18188;SDS011;9219;50.396;8.546;2023-04-10T11:56:17;6.83;;;4.87;;
18188;SDS011;9219;50.396;8.546;2023-04-10T11:58:47;6.40;;;4.50;;
18188;SDS011;9219;50.396;8.546;2023-04-10T12:01:19;7.70;;;4.90;;
18188;SDS011;9219;50.396;8.546;2023-04-10T12:03:47;6.47;;;4.67;;
18188;SDS011;9219;50.396;8.546;2023-04-10T12:06:15;5.70;;;4.43;;
18188;SDS011;9219;50.396;8.546;2023-04-10T12:08:45;4.90;;;3.73;;
18188;SDS011;9219;50.396;8.546;2023-04-10T12:19:06;5.13;;;3.97;;
18188;SDS011;9219;50.396;8.546;2023-04-10T12:21:34;7.23;;;4.43;;
18188;SDS011;9219;50.396;8.546;2023-04-10T12:24:02;4.70;;;3.77;;
18188;SDS011;9219;50.396;8.546;2023-04-10T12:26:30;4.20;;;3.60;;
18188;SDS011;9219;50.396;8.546;2023-04-10T12:28:58;6.37;;;4.50;;
18188;SDS011;9219;50.396;8.546;2023-04-10T12:31:25;4.33;;;3.70;;
18188;SDS011;9219;50.396;8.546;2023-04-10T12:33:54;5.53;;;4.00;;
18188;SDS011;9219;50.396;8.546;2023-04-10T12:41:27;4.70;;;3.83;;
18188;SDS011;9219;50.396;8.546;2023-04-10T12:44:05;5.53;;;3.67;;
18188;SDS011;9219;50.396;8.546;2023-04-10T12:46:33;4.90;;;4.03;;
18188;SDS011;9219;50.396;8.546;2023-04-10T12:49:08;5.37;;;3.97;;
18188;SDS011;9219;50.396;8.546;2023-04-10T12:51:40;6.90;;;3.97;;
18188;SDS011;9219;50.396;8.546;2023-04-10T12:54:08;4.90;;;3.90;;
18188;SDS011;9219;50.396;8.546;2023-04-10T12:56:40;5.87;;;3.80;;
18188;SDS011;9219;50.396;8.546;2023-04-10T13:04:59;5.03;;;4.00;;
18188;SDS011;9219;50.396;8.546;2023-04-10T13:07:26;4.50;;;3.30;;
18188;SDS011;9219;50.396;8.546;2023-04-10T13:09:54;6.13;;;3.87;;
18188;SDS011;9219;50.396;8.546;2023-04-10T13:12:22;9.77;;;3.33;;
18188;SDS011;9219;50.396;8.546;2023-04-10T13:14:50;6.43;;;4.07;;
18188;SDS011;9219;50.396;8.546;2023-04-10T13:17:18;5.13;;;3.73;;
18188;SDS011;9219;50.396;8.546;2023-04-10T13:19:46;4.13;;;3.37;;
18188;SDS011;9219;50.396;8.546;2023-04-10T13:22:15;4.17;;;3.27;;
18188;SDS011;9219;50.396;8.546;2023-04-10T13:30:05;3.23;;;2.67;;
18188;SDS011;9219;50.396;8.546;2023-04-10T13:32:33;4.70;;;2.90;;
18188;SDS011;9219;50.396;8.546;2023-04-10T13:35:01;3.53;;;2.80;;
18188;SDS011;9219;50.396;8.546;2023-04-10T13:37:28;5.13;;;2.17;;
18188;SDS011;9219;50.396;8.546;2023-04-10T13:39:55;3.90;;;2.83;;
18188;SDS011;9219;50.396;8.546;2023-04-10T13:42:23;3.50;;;2.67;;
18188;SDS011;9219;50.396;8.546;2023-04-10T13:44:50;3.00;;;2.10;;
18188;SDS011;9219;50.396;8.546;2023-04-10T13:52:37;2.73;;;1.90;;
18188;SDS011;9219;50.396;8.546;2023-04-10T13:55:05;4.07;;;2.17;;
18188;SDS011;9219;50.396;8.546;2023-04-10T13:57:33;2.00;;;1.80;;
18188;SDS011;9219;50.396;8.546;2023-04-10T14:00:00;3.07;;;2.23;;
18188;SDS011;9219;50.396;8.546;2023-04-10T14:02:29;2.63;;;1.97;;
18188;SDS011;9219;50.396;8.546;2023-04-10T14:04:57;2.23;;;1.93;;
18188;SDS011;9219;50.396;8.546;2023-04-10T14:07:24;2.77;;;1.90;;
18188;SDS011;9219;50.396;8.546;2023-04-10T14:16:00;1.63;;;1.50;;
18188;SDS011;9219;50.396;8.546;2023-04-10T14:18:28;2.23;;;2.00;;
18188;SDS011;9219;50.396;8.546;2023-04-10T14:20:56;1.90;;;1.70;;
18188;SDS011;9219;50.396;8.546;2023-04-10T14:23:24;2.23;;;2.03;;
18188;SDS011;9219;50.396;8.546;2023-04-10T14:25:51;3.10;;;1.90;;
18188;SDS011;9219;50.396;8.546;2023-04-10T14:28:19;2.77;;;2.00;;
18188;SDS011;9219;50.396;8.546;2023-04-10T14:30:46;2.50;;;1.90;;
18188;SDS011;9219;50.396;8.546;2023-04-10T14:41:11;6.30;;;2.17;;
18188;SDS011;9219;50.396;8.546;2023-04-10T14:43:39;4.37;;;2.00;;
18188;SDS011;9219;50.396;8.546;2023-04-10T14:46:09;3.10;;;2.43;;
18188;SDS011;9219;50.396;8.546;2023-04-10T14:48:37;2.30;;;1.73;;
18188;SDS011;9219;50.396;8.546;2023-04-10T14:51:06;3.57;;;2.03;;
18188;SDS011;9219;50.396;8.546;2023-04-10T14:53:37;2.07;;;1.87;;
18188;SDS011;9219;50.396;8.546;2023-04-10T14:56:09;3.27;;;2.27;;
18188;SDS011;9219;50.396;8.546;2023-04-10T15:03:42;2.00;;;1.80;;
18188;SDS011;9219;50.396;8.546;2023-04-10T15:06:13;4.43;;;2.20;;
18188;SDS011;9219;50.396;8.546;2023-04-10T15:08:41;2.77;;;2.03;;
18188;SDS011;9219;50.396;8.546;2023-04-10T15:11:09;4.40;;;2.10;;
18188;SDS011;9219;50.396;8.546;2023-04-10T15:13:36;2.20;;;1.90;;
18188;SDS011;9219;50.396;8.546;2023-04-10T15:16:04;3.17;;;2.50;;
18188;SDS011;9219;50.396;8.546;2023-04-10T15:18:33;2.50;;;2.00;;
18188;SDS011;9219;50.396;8.546;2023-04-10T15:26:10;3.40;;;2.27;;
18188;SDS011;9219;50.396;8.546;2023-04-10T15:28:39;2.77;;;2.30;;
18188;SDS011;9219;50.396;8.546;2023-04-10T15:31:07;2.77;;;2.17;;
18188;SDS011;9219;50.396;8.546;2023-04-10T15:33:35;2.53;;;2.10;;
18188;SDS011;9219;50.396;8.546;2023-04-10T15:36:05;2.80;;;2.20;;
18188;SDS011;9219;50.396;8.546;2023-04-10T15:38:34;3.83;;;2.27;;
18188;SDS011;9219;50.396;8.546;2023-04-10T15:41:06;2.47;;;1.93;;
18188;SDS011;9219;50.396;8.546;2023-04-10T15:49:11;2.90;;;2.23;;
18188;SDS011;9219;50.396;8.546;2023-04-10T15:51:43;2.70;;;2.20;;
18188;SDS011;9219;50.396;8.546;2023-04-10T15:54:11;4.27;;;2.53;;
18188;SDS011;9219;50.396;8.546;2023-04-10T15:56:39;2.17;;;1.70;;
18188;SDS011;9219;50.396;8.546;2023-04-10T15:59:06;2.10;;;1.70;;
18188;SDS011;9219;50.396;8.546;2023-04-10T16:01:33;2.23;;;2.03;;
18188;SDS011;9219;50.396;8.546;2023-04-10T16:04:01;2.17;;;1.83;;
18188;SDS011;9219;50.396;8.546;2023-04-10T16:06:30;2.63;;;2.07;;
18188;SDS011;9219;50.396;8.546;2023-04-10T16:09:31;3.37;;;1.40;;
18188;SDS011;9219;50.396;8.546;2023-04-10T16:12:00;2.53;;;2.10;;
18188;SDS011;9219;50.396;8.546;2023-04-10T16:14:27;2.77;;;2.10;;
18188;SDS011;9219;50.396;8.546;2023-04-10T16:16:55;2.53;;;2.03;;
18188;SDS011;9219;50.396;8.546;2023-04-10T16:19:22;2.67;;;1.90;;
18188;SDS011;9219;50.396;8.546;2023-04-10T16:21:49;2.00;;;1.80;;
18188;SDS011;9219;50.396;8.546;2023-04-10T16:24:16;2.13;;;1.83;;
18188;SDS011;9219;50.396;8.546;2023-04-10T16:26:45;1.50;;;1.40;;
18188;SDS011;9219;50.396;8.546;2023-04-10T16:34:17;3.70;;;2.20;;
18188;SDS011;9219;50.396;8.546;2023-04-10T16:36:44;3.33;;;2.03;;
18188;SDS011;9219;50.396;8.546;2023-04-10T16:39:12;2.83;;;2.00;;
18188;SDS011;9219;50.396;8.546;2023-04-10T16:41:39;2.60;;;2.07;;
18188;SDS011;9219;50.396;8.546;2023-04-10T16:44:07;2.03;;;1.80;;
18188;SDS011;9219;50.396;8.546;2023-04-10T16:46:34;2.50;;;2.00;;
18188;SDS011;9219;50.396;8.546;2023-04-10T16:49:02;2.53;;;1.83;;
18188;SDS011;9219;50.396;8.546;2023-04-10T16:54:31;2.23;;;1.90;;
18188;SDS011;9219;50.396;8.546;2023-04-10T16:56:58;2.13;;;1.90;;
18188;SDS011;9219;50.396;8.546;2023-04-10T16:59:26;2.77;;;1.83;;
18188;SDS011;9219;50.396;8.546;2023-04-10T17:01:53;2.00;;;1.80;;
18188;SDS011;9219;50.396;8.546;2023-04-10T17:04:21;7.30;;;2.20;;
18188;SDS011;9219;50.396;8.546;2023-04-10T17:06:48;5.17;;;2.63;;
18188;SDS011;9219;50.396;8.546;2023-04-10T17:09:16;2.67;;;1.93;;
18188;SDS011;9219;50.396;8.546;2023-04-10T17:11:45;2.60;;;1.80;;
18188;SDS011;9219;50.396;8.546;2023-04-10T17:19:28;2.23;;;1.73;;
18188;SDS011;9219;50.396;8.546;2023-04-10T17:21:57;2.30;;;1.77;;
18188;SDS011;9219;50.396;8.546;2023-04-10T17:24:24;2.43;;;1.87;;
18188;SDS011;9219;50.396;8.546;2023-04-10T17:26:52;4.37;;;1.60;;
18188;SDS011;9219;50.396;8.546;2023-04-10T17:29:21;2.80;;;2.20;;
18188;SDS011;9219;50.396;8.546;2023-04-10T17:31:50;3.40;;;2.00;;
18188;SDS011;9219;50.396;8.546;2023-04-10T17:34:18;3.20;;;2.20;;
18188;SDS011;9219;50.396;8.546;2023-04-10T17:36:47;3.67;;;1.73;;
18188;SDS011;9219;50.396;8.546;2023-04-10T17:44:35;2.00;;;1.80;;
18188;SDS011;9219;50.396;8.546;2023-04-10T17:47:02;2.70;;;2.30;;
18188;SDS011;9219;50.396;8.546;2023-04-10T17:49:30;3.70;;;2.07;;
18188;SDS011;9219;50.396;8.546;2023-04-10T17:52:01;2.30;;;1.70;;
18188;SDS011;9219;50.396;8.546;2023-04-10T17:54:28;1.93;;;1.73;;
18188;SDS011;9219;50.396;8.546;2023-04-10T17:56:56;2.00;;;1.67;;
18188;SDS011;9219;50.396;8.546;2023-04-10T17:59:24;2.33;;;1.73;;
18188;SDS011;9219;50.396;8.546;2023-04-10T18:07:04;2.27;;;1.73;;
18188;SDS011;9219;50.396;8.546;2023-04-10T18:09:32;3.17;;;1.83;;
18188;SDS011;9219;50.396;8.546;2023-04-10T18:12:02;4.70;;;1.70;;
18188;SDS011;9219;50.396;8.546;2023-04-10T18:14:29;2.90;;;1.80;;
18188;SDS011;9219;50.396;8.546;2023-04-10T18:16:57;1.73;;;1.60;;
18188;SDS011;9219;50.396;8.546;2023-04-10T18:19:27;1.90;;;1.37;;
18188;SDS011;9219;50.396;8.546;2023-04-10T18:21:55;2.07;;;1.37;;
18188;SDS011;9219;50.396;8.546;2023-04-10T18:27:08;2.67;;;1.80;;
18188;SDS011;9219;50.396;8.546;2023-04-10T18:29:36;1.80;;;1.23;;
18188;SDS011;9219;50.396;8.546;2023-04-10T18:32:04;1.37;;;1.23;;
18188;SDS011;9219;50.396;8.546;2023-04-10T18:34:33;1.73;;;1.60;;
18188;SDS011;9219;50.396;8.546;2023-04-10T18:37:02;2.97;;;1.83;;
18188;SDS011;9219;50.396;8.546;2023-04-10T18:39:29;1.97;;;1.73;;
18188;SDS011;9219;50.396;8.546;2023-04-10T18:41:56;2.13;;;1.50;;
18188;SDS011;9219;50.396;8.546;2023-04-10T18:52:05;1.73;;;1.57;;
18188;SDS011;9219;50.396;8.546;2023-04-10T18:54:34;2.07;;;1.67;;
18188;SDS011;9219;50.396;8.546;2023-04-10T18:57:01;1.50;;;1.40;;
18188;SDS011;9219;50.396;8.546;2023-04-10T18:59:29;2.23;;;1.70;;
18188;SDS011;9219;50.396;8.546;2023-04-10T19:01:57;1.47;;;1.37;;
18188;SDS011;9219;50.396;8.546;2023-04-10T19:04:25;2.37;;;1.50;;
18188;SDS011;9219;50.396;8.546;2023-04-10T19:06:53;2.63;;;1.70;;
18188;SDS011;9219;50.396;8.546;2023-04-10T19:09:22;1.60;;;1.43;;
18188;SDS011;9219;50.396;8.546;2023-04-10T19:16:54;2.63;;;1.90;;
18188;SDS011;9219;50.396;8.546;2023-04-10T19:19:23;3.93;;;1.80;;
18188;SDS011;9219;50.396;8.546;2023-04-10T19:21:50;2.27;;;1.70;;